Time;durP1;ratioP1;P1;durP2;ratioP2;P2;SDS_P1;SDS_P2;PMS_P1;PMS_P2;Temp;Humidity;BMP_temperature;BMP_pressure;BME280_temperature;BME280_humidity;BME280_pressure;Samples;Min_cycle;Max_cycle;Signal;HPM_P1;HPM_P2
2021/06/16 00:01:34;;;;;;;14.07;1.77;;;;;;;16.97;55.53;101643.13;6364419;28;20425;-74
2021/06/16 00:04:38;;;;;;;10.55;1.35;;;;;;;16.95;55.88;101642.50;6364483;28;20205;-74
2021/06/16 00:07:43;;;;;;;12.90;1.98;;;;;;;16.93;55.67;101636.41;6365796;28;20213;-74
2021/06/16 00:10:49;;;;;;;13.15;2.22;;;;;;;16.85;56.29;101639.50;6346842;28;20517;-75
2021/06/16 00:13:53;;;;;;;9.73;2.30;;;;;;;16.92;55.89;101635.56;6365273;28;20253;-74
2021/06/16 00:16:57;;;;;;;15.52;2.65;;;;;;;16.81;56.84;101639.16;6364652;28;20186;-74
2021/06/16 00:20:01;;;;;;;15.77;2.05;;;;;;;16.81;56.20;101646.59;6365492;28;20227;-75
2021/06/16 00:23:08;;;;;;;9.98;2.00;;;;;;;16.85;55.94;101656.88;6364912;28;20221;-74
2021/06/16 00:26:14;;;;;;;17.15;2.40;;;;;;;16.89;57.08;101668.28;6365249;28;20227;-74
2021/06/16 00:29:19;;;;;;;13.63;1.92;;;;;;;16.79;57.73;101668.03;6365096;28;20186;-74
2021/06/16 00:32:23;;;;;;;7.60;1.60;;;;;;;16.83;57.56;101670.06;6363760;28;20186;-74
2021/06/16 00:35:27;;;;;;;15.10;2.28;;;;;;;16.77;56.84;101672.94;6364695;28;20214;-75
2021/06/16 00:38:31;;;;;;;46.70;3.67;;;;;;;16.70;55.94;101658.44;6363439;28;20236;-74
2021/06/16 00:41:38;;;;;;;23.83;2.65;;;;;;;16.69;55.94;101656.75;6363532;28;20553;-74
2021/06/16 00:44:42;;;;;;;28.38;2.45;;;;;;;16.61;56.48;101660.72;6363826;28;20190;-74
2021/06/16 00:47:47;;;;;;;23.63;2.20;;;;;;;16.60;56.52;101666.44;6363418;28;20392;-74
2021/06/16 00:50:51;;;;;;;12.93;1.90;;;;;;;16.63;56.98;101668.72;6363315;28;20516;-74
2021/06/16 00:53:56;;;;;;;12.55;2.08;;;;;;;16.44;58.31;101665.16;6364091;28;20186;-74
2021/06/16 00:57:02;;;;;;;10.55;1.73;;;;;;;16.46;57.83;101678.72;6363494;28;20213;-75
2021/06/16 01:00:10;;;;;;;22.60;2.60;;;;;;;16.52;57.25;101666.75;6364249;28;20220;-74
2021/06/16 01:03:25;;;;;;;21.88;2.38;;;;;;;16.55;55.98;101666.31;6363864;28;20216;-74
2021/06/16 01:06:36;;;;;;;10.48;2.10;;;;;;;16.50;56.11;101679.91;6363820;28;20249;-74
2021/06/16 01:09:48;;;;;;;14.55;3.13;;;;;;;16.50;57.84;101690.94;6364189;28;20257;-74
2021/06/16 01:13:00;;;;;;;6.22;1.92;;;;;;;16.19;58.65;101676.34;6364088;28;20224;-74
2021/06/16 01:16:09;;;;;;;16.02;1.80;;;;;;;16.33;58.32;101684.44;6363991;28;20209;-74
2021/06/16 01:19:24;;;;;;;6.05;1.63;;;;;;;16.37;57.18;101680.13;6362540;28;20190;-74
2021/06/16 01:22:38;;;;;;;4.38;1.42;;;;;;;16.38;57.16;101681.81;6362485;28;20508;-74
2021/06/16 01:25:47;;;;;;;9.60;1.95;;;;;;;16.25;57.33;101672.66;6362504;28;20183;-74
2021/06/16 01:28:56;;;;;;;9.68;1.75;;;;;;;16.31;58.13;101681.06;6361645;28;20243;-74
2021/06/16 01:32:02;;;;;;;2.72;1.55;;;;;;;16.19;57.77;101679.13;6363791;28;20261;-74
2021/06/16 01:35:07;;;;;;;2.85;1.33;;;;;;;16.13;58.36;101679.19;6363352;28;20190;-74
2021/06/16 01:38:17;;;;;;;4.65;1.30;;;;;;;16.29;57.91;101684.91;6363147;28;20182;-74
2021/06/16 01:41:22;;;;;;;6.00;1.65;;;;;;;16.23;58.35;101685.81;6362129;28;20182;-74
2021/06/16 01:44:29;;;;;;;2.97;1.38;;;;;;;16.11;58.92;101681.34;6360703;28;20216;-74
2021/06/16 01:47:35;;;;;;;1.75;1.00;;;;;;;16.16;58.82;101678.72;6362883;28;20205;-74
2021/06/16 01:50:42;;;;;;;1.25;1.10;;;;;;;16.14;58.37;101687.22;6363241;28;20214;-74
2021/06/16 01:53:48;;;;;;;3.75;1.20;;;;;;;16.10;59.11;101686.00;6362134;28;20218;-74
2021/06/16 01:56:53;;;;;;;2.25;1.25;;;;;;;15.92;59.51;101697.03;6363219;28;20262;-74
2021/06/16 02:00:01;;;;;;;3.92;1.27;;;;;;;15.84;60.36;101680.03;6362803;28;20182;-74
2021/06/16 02:03:17;;;;;;;2.13;1.25;;;;;;;15.86;59.33;101683.38;6362802;28;20244;-74
2021/06/16 02:06:25;;;;;;;5.18;1.23;;;;;;;15.85;58.97;101688.03;6363241;28;20186;-74
2021/06/16 02:09:33;;;;;;;3.55;1.33;;;;;;;15.83;59.53;101695.69;6362780;28;20183;-74
2021/06/16 02:12:39;;;;;;;2.83;1.30;;;;;;;15.80;58.99;101701.66;6362009;28;20227;-74
2021/06/16 02:15:55;;;;;;;2.78;1.10;;;;;;;15.78;58.82;101692.78;6362661;28;20250;-74
2021/06/16 02:19:04;;;;;;;3.70;1.42;;;;;;;15.69;60.42;101699.66;6362925;28;20214;-74
2021/06/16 02:22:11;;;;;;;1.40;1.30;;;;;;;15.71;60.58;101703.03;6361926;28;20182;-74
2021/06/16 02:25:16;;;;;;;2.80;1.25;;;;;;;15.65;60.42;101692.94;6361989;28;20269;-74
2021/06/16 02:28:20;;;;;;;1.67;1.17;;;;;;;15.64;61.07;101707.75;6362494;28;20223;-74
2021/06/16 02:31:26;;;;;;;2.70;1.27;;;;;;;15.61;60.90;101697.25;6362929;28;20213;-74
2021/06/16 02:34:30;;;;;;;4.30;1.33;;;;;;;15.78;60.55;101712.06;6361477;28;20186;-73
2021/06/16 02:37:38;;;;;;;4.25;1.30;;;;;;;15.75;59.44;101715.25;6361403;28;20182;-74
2021/06/16 02:40:43;;;;;;;4.45;1.25;;;;;;;15.74;60.20;101726.50;6367846;28;20249;-74
2021/06/16 02:43:47;;;;;;;5.53;1.70;;;;;;;15.60;61.18;101728.56;6367694;28;20206;-74
2021/06/16 02:46:55;;;;;;;6.10;1.52;;;;;;;15.71;59.99;101729.72;6367589;28;20214;-74
2021/06/16 02:50:02;;;;;;;4.80;1.40;;;;;;;15.73;59.95;101722.06;6366338;28;20292;-74
2021/06/16 02:53:09;;;;;;;3.70;1.55;;;;;;;15.68;59.63;101725.50;6366029;28;20392;-74
2021/06/16 02:56:15;;;;;;;3.88;1.20;;;;;;;15.75;59.26;101723.50;6367463;28;20182;-74
2021/06/16 02:59:21;;;;;;;4.60;1.42;;;;;;;15.71;60.92;101725.06;6366996;28;20252;-74
2021/06/16 03:02:28;;;;;;;1.60;1.30;;;;;;;15.72;60.57;101721.22;6366965;28;20250;-74
2021/06/16 03:05:33;;;;;;;1.20;1.10;;;;;;;15.53;61.40;101719.53;6366775;28;20217;-74
2021/06/16 03:08:39;;;;;;;3.65;2.00;;;;;;;15.53;61.97;101723.16;6366797;28;20189;-74
2021/06/16 03:11:44;;;;;;;2.88;1.40;;;;;;;15.59;61.77;101727.72;6367053;28;20182;-74
2021/06/16 03:14:50;;;;;;;5.32;1.58;;;;;;;15.54;60.72;101737.72;6365659;28;20376;-74
2021/06/16 03:17:57;;;;;;;3.95;1.42;;;;;;;15.69;60.41;101737.34;6366749;28;20193;-73
2021/06/16 03:21:02;;;;;;;4.85;1.60;;;;;;;15.72;60.13;101737.72;6365515;28;20537;-75
2021/06/16 03:24:10;;;;;;;1.95;1.13;;;;;;;15.66;60.11;101727.66;6365624;28;20213;-74
2021/06/16 03:27:14;;;;;;;3.58;1.90;;;;;;;15.58;60.21;101730.69;6366365;28;20186;-74
2021/06/16 03:30:20;;;;;;;5.13;1.40;;;;;;;15.68;59.98;101736.50;6366317;28;20182;-74
2021/06/16 03:33:25;;;;;;;3.65;1.27;;;;;;;15.75;60.40;101737.28;6347463;28;20197;-74
2021/06/16 03:36:30;;;;;;;3.00;1.08;;;;;;;15.71;60.40;101740.72;6366383;28;20186;-74
2021/06/16 03:39:38;;;;;;;2.20;1.20;;;;;;;15.76;61.28;101752.72;6365016;28;20489;-74
2021/06/16 03:42:43;;;;;;;3.60;1.25;;;;;;;15.62;61.84;101748.41;6365969;28;20182;-74
2021/06/16 03:45:48;;;;;;;4.82;1.30;;;;;;;15.76;61.01;101749.97;6366147;28;20238;-74
2021/06/16 03:48:55;;;;;;;2.55;1.20;;;;;;;15.74;61.00;101735.56;6365859;28;20233;-75
2021/06/16 03:52:00;;;;;;;2.70;1.52;;;;;;;15.86;61.04;101750.28;6365386;28;20182;-74
2021/06/16 03:55:06;;;;;;;4.90;1.40;;;;;;;15.95;61.27;101748.88;6366038;28;20186;-74
2021/06/16 03:58:12;;;;;;;2.05;1.30;;;;;;;16.00;60.86;101746.28;6365913;28;20182;-75
2021/06/16 04:01:18;;;;;;;7.90;1.45;;;;;;;16.11;60.30;101753.75;6365743;28;20183;-74
2021/06/16 04:04:24;;;;;;;2.30;1.20;;;;;;;16.09;60.87;101761.41;6365565;28;20269;-74
2021/06/16 04:07:29;;;;;;;3.72;1.60;;;;;;;16.15;60.51;101765.97;6346778;28;20366;-74
2021/06/16 04:10:35;;;;;;;4.55;1.33;;;;;;;16.06;61.56;101748.13;6365486;28;20182;-74
2021/06/16 04:13:39;;;;;;;9.25;1.40;;;;;;;16.04;60.35;101758.53;6365774;28;20182;-75
2021/06/16 04:16:43;;;;;;;3.70;1.40;;;;;;;16.17;62.08;101761.09;6365578;28;20182;-74
2021/06/16 04:19:51;;;;;;;4.32;1.42;;;;;;;16.18;61.16;101760.03;6364105;28;20402;-74
2021/06/16 04:22:56;;;;;;;4.40;1.20;;;;;;;16.23;60.32;101776.69;6364842;28;20214;-74
2021/06/16 04:26:00;;;;;;;6.25;1.40;;;;;;;16.33;60.26;101767.03;6364840;28;20214;-75
2021/06/16 04:29:04;;;;;;;5.97;1.52;;;;;;;16.29;59.99;101774.91;6365217;28;20221;-75
2021/06/16 04:32:10;;;;;;;1.80;1.40;;;;;;;16.22;60.23;101772.25;6363816;28;20465;-75
2021/06/16 04:35:16;;;;;;;16.83;1.30;;;;;;;16.38;60.24;101775.44;6365058;28;20253;-75
2021/06/16 04:38:20;;;;;;;1.90;1.40;;;;;;;16.20;60.39;101774.38;6363491;28;20442;-75
2021/06/16 04:41:24;;;;;;;2.85;1.52;;;;;;;16.26;60.50;101773.47;6364938;28;20183;-75
2021/06/16 04:44:28;;;;;;;3.83;1.40;;;;;;;16.34;60.55;101774.22;6364462;28;20243;-75
2021/06/16 04:47:33;;;;;;;3.55;1.33;;;;;;;16.39;60.66;101788.13;6363988;28;20230;-75
2021/06/16 04:50:38;;;;;;;2.15;1.42;;;;;;;16.42;60.75;101782.16;6363432;28;20489;-75
2021/06/16 04:53:42;;;;;;;6.18;1.80;;;;;;;16.47;60.73;101785.06;6364118;28;20182;-75
2021/06/16 04:56:47;;;;;;;3.03;1.58;;;;;;;16.51;61.01;101794.56;6363303;28;20269;-74
2021/06/16 04:59:51;;;;;;;7.15;2.20;;;;;;;16.47;60.92;101787.81;6364493;28;20250;-74
2021/06/16 05:02:56;;;;;;;3.78;1.48;;;;;;;16.52;60.18;101787.94;6362768;28;20236;-75
2021/06/16 05:06:01;;;;;;;4.38;1.70;;;;;;;16.38;59.67;101780.97;6345292;28;20289;-75
2021/06/16 05:09:06;;;;;;;3.40;1.30;;;;;;;16.50;60.09;101788.19;6363184;28;20351;-74
2021/06/16 05:12:11;;;;;;;5.63;1.67;;;;;;;16.64;59.40;101792.47;6363731;28;20222;-75
2021/06/16 05:15:17;;;;;;;1.98;1.30;;;;;;;16.64;59.66;101791.66;6364028;28;20218;-75
2021/06/16 05:18:21;;;;;;;5.00;1.80;;;;;;;17.49;58.74;101780.03;6363635;28;20222;-75
2021/06/16 05:21:28;;;;;;;7.05;1.55;;;;;;;18.39;56.37;101780.38;6363343;28;20182;-75
2021/06/16 05:24:33;;;;;;;3.55;1.60;;;;;;;18.53;57.91;101787.34;6362782;28;20189;-75
2021/06/16 05:27:39;;;;;;;3.85;1.50;;;;;;;18.95;57.56;101784.25;6362256;28;20186;-75
2021/06/16 05:30:43;;;;;;;4.82;1.80;;;;;;;18.90;53.81;101792.47;6363419;28;20220;-75
2021/06/16 05:33:47;;;;;;;4.10;1.40;;;;;;;19.26;53.91;101803.88;6363429;28;20182;-75
2021/06/16 05:36:52;;;;;;;10.00;1.77;;;;;;;19.22;53.44;101790.81;6362099;28;20509;-75
2021/06/16 05:39:56;;;;;;;8.77;1.60;;;;;;;19.00;53.50;101792.63;6363037;28;20246;-75
2021/06/16 05:43:00;;;;;;;4.75;1.77;;;;;;;18.92;52.54;101796.66;6362844;28;20245;-75
2021/06/16 05:46:04;;;;;;;5.45;1.48;;;;;;;19.02;52.47;101784.94;6362891;28;20247;-76
2021/06/16 05:49:10;;;;;;;7.05;1.50;;;;;;;18.68;52.31;101790.41;6362294;28;20236;-75
2021/06/16 05:52:15;;;;;;;3.40;1.63;;;;;;;18.67;52.73;101777.66;6363251;28;20245;-75
2021/06/16 05:55:19;;;;;;;2.22;1.88;;;;;;;18.72;53.25;101786.03;6362168;28;20239;-75
2021/06/16 05:58:24;;;;;;;5.40;1.73;;;;;;;18.64;53.91;101780.91;6361583;28;20469;-76
2021/06/16 06:01:28;;;;;;;3.03;1.98;;;;;;;18.72;54.52;101786.03;6313159;28;20269;-75
2021/06/16 06:04:34;;;;;;;6.82;2.05;;;;;;;18.71;55.41;101778.00;6311379;28;20184;-76
2021/06/16 06:07:40;;;;;;;7.28;1.98;;;;;;;18.63;54.72;101789.47;6311677;28;20218;-76
2021/06/16 06:10:44;;;;;;;7.47;1.85;;;;;;;18.75;54.21;101791.09;6312060;28;20184;-76
2021/06/16 06:13:48;;;;;;;9.15;2.63;;;;;;;18.88;54.20;101792.69;6311739;28;20190;-75
2021/06/16 06:16:52;;;;;;;6.43;1.90;;;;;;;18.90;52.85;101792.47;6310939;28;20433;-76
2021/06/16 06:19:56;;;;;;;3.75;1.77;;;;;;;18.79;53.50;101782.28;6312061;28;20183;-76
2021/06/16 06:23:02;;;;;;;7.43;1.67;;;;;;;18.74;52.45;101783.91;6311748;28;20246;-74
2021/06/16 06:26:06;;;;;;;2.35;1.60;;;;;;;18.90;52.79;101798.00;6310575;28;20211;-75
2021/06/16 06:29:11;;;;;;;3.50;1.80;;;;;;;18.67;53.08;101794.25;6311390;28;20207;-75
2021/06/16 06:32:15;;;;;;;11.50;1.50;;;;;;;18.84;52.14;101785.16;6312089;28;20183;-74
2021/06/16 06:35:20;;;;;;;7.18;1.73;;;;;;;18.72;53.01;101791.56;6311004;28;20192;-74
2021/06/16 06:38:25;;;;;;;2.38;1.35;;;;;;;18.59;53.14;101791.88;6311056;28;20490;-74
2021/06/16 06:41:29;;;;;;;4.20;1.48;;;;;;;18.84;53.48;101782.38;6311029;28;20187;-74
2021/06/16 06:44:33;;;;;;;3.25;1.55;;;;;;;18.95;53.09;101784.25;6311501;28;20246;-74
2021/06/16 06:47:55;;;;;;;;;;;;;;;19.09;53.25;101785.59;6311633;28;20061;-74
2021/06/16 06:50:59;;;;;;;;;;;;;;;19.22;52.45;101779.72;6311186;28;20010;-74
2021/06/16 06:54:08;;;;;;;;;;;;;;;-142.63;100.00;63929.00;6312529;28;19916;-75
2021/06/16 06:57:12;;;;;;;;;;;;;;;-142.63;100.00;63929.00;6311094;28;20493;-75
2021/06/16 07:00:16;;;;;;;;;;;;;;;-142.63;100.00;63929.00;6312239;28;19920;-75
2021/06/16 07:03:20;;;;;;;;;;;;;;;-142.63;100.00;63929.00;6311886;28;20231;-75
2021/06/16 07:06:24;;;;;;;;;;;;;;;-142.63;100.00;63929.00;6310711;28;20147;-75
2021/06/16 07:09:29;;;;;;;;;;;;;;;-142.63;100.00;63929.00;6294048;28;20229;-75
2021/06/16 07:12:33;;;;;;;;;;;;;;;-142.63;100.00;63929.00;6311083;28;20119;-75
2021/06/16 07:15:37;;;;;;;3.75;1.40;;;;;;;-142.63;100.00;63929.00;6311493;28;20134;-75
2021/06/16 07:18:42;;;;;;;;;;;;;;;-142.63;100.00;63929.00;6310579;28;20060;-75
2021/06/16 07:21:46;;;;;;;3.10;1.60;;;;;;;-142.63;100.00;63929.00;6310253;28;20061;-76
2021/06/16 07:24:51;;;;;;;;;;;;;;;-142.63;100.00;63929.00;6312049;28;20183;-80
2021/06/16 07:27:57;;;;;;;3.50;1.50;;;;;;;-142.63;100.00;63929.00;6316131;28;20143;-75
2021/06/16 07:31:02;;;;;;;11.70;1.95;;;;;;;-142.63;100.00;63929.00;6315744;28;20133;-75
2021/06/16 07:34:06;;;;;;;7.00;1.90;;;;;;;-142.63;100.00;63929.00;6314707;28;20347;-75
2021/06/16 07:37:10;;;;;;;;;;;;;;;-142.63;100.00;63929.00;6315679;28;20273;-75
2021/06/16 07:40:17;;;;;;;4.78;1.50;;;;;;;-142.63;100.00;63929.00;6315788;28;20067;-75
2021/06/16 07:43:21;;;;;;;8.90;1.65;;;;;;;-142.63;100.00;63929.00;6315760;28;20266;-75
2021/06/16 07:46:25;;;;;;;3.20;1.70;;;;;;;-142.63;100.00;63929.00;6314358;28;20359;-75
2021/06/16 07:49:29;;;;;;;;;;;;;;;-142.63;100.00;63929.00;6314783;28;20114;-75
2021/06/16 07:52:33;;;;;;;6.63;1.83;;;;;;;-142.63;100.00;63929.00;6315599;28;20132;-75
2021/06/16 07:55:40;;;;;;;5.10;1.90;;;;;;;-142.63;100.00;63929.00;6315418;28;20187;-75
2021/06/16 07:58:44;;;;;;;6.90;1.98;;;;;;;-142.63;100.00;63929.00;6315278;28;20187;-75
2021/06/16 08:01:48;;;;;;;15.90;2.30;;;;;;;-142.63;100.00;63929.00;6315428;28;20141;-74
2021/06/16 08:04:53;;;;;;;14.00;2.60;;;;;;;-142.63;100.00;63929.00;6314333;28;20067;-76
2021/06/16 08:07:57;;;;;;;9.93;2.47;;;;;;;-142.63;100.00;63929.00;6313993;28;20068;-76
2021/06/16 08:11:05;;;;;;;;;;;;;;;-142.63;100.00;63929.00;6315355;28;20061;-76
2021/06/16 08:14:11;;;;;;;12.48;4.53;;;;;;;-142.63;100.00;63929.00;6314639;28;20224;-76
2021/06/16 08:17:15;;;;;;;7.15;2.97;;;;;;;-142.63;100.00;63929.00;6314454;28;20205;-75
2021/06/16 08:20:20;;;;;;;6.57;3.13;;;;;;;-142.63;100.00;63929.00;6313490;28;20490;-75
2021/06/16 08:23:24;;;;;;;12.60;3.63;;;;;;;-142.63;100.00;63929.00;6314894;28;20183;-75
2021/06/16 08:26:30;;;;;;;7.75;2.70;;;;;;;-142.63;100.00;63929.00;6314278;28;20207;-76
2021/06/16 08:29:34;;;;;;;11.80;2.95;;;;;;;-142.63;100.00;63929.00;6314055;28;20205;-76
2021/06/16 08:32:38;;;;;;;7.68;2.22;;;;;;;-142.63;100.00;63929.00;6312894;28;20449;-75
2021/06/16 08:35:42;;;;;;;3.30;1.80;;;;;;;-142.63;100.00;63929.00;6313851;28;20338;-76
2021/06/16 08:38:47;;;;;;;6.72;2.08;;;;;;;-142.63;100.00;63929.00;6312855;28;20482;-75
2021/06/16 08:41:53;;;;;;;5.97;1.75;;;;;;;-142.63;100.00;63929.00;6312898;28;20183;-75
2021/06/16 08:44:58;;;;;;;9.30;2.00;;;;;;;-142.63;100.00;63929.00;6313904;28;20215;-75
2021/06/16 08:48:02;;;;;;;7.70;1.90;;;;;;;-142.63;100.00;63929.00;6313087;28;20410;-76
2021/06/16 08:51:09;;;;;;;7.70;2.20;;;;;;;-142.63;100.00;63929.00;6313893;28;20192;-76
2021/06/16 08:54:13;;;;;;;5.78;1.67;;;;;;;-142.63;100.00;63929.00;6313775;28;20223;-75
2021/06/16 08:57:18;;;;;;;4.70;1.95;;;;;;;-142.63;100.00;63929.00;6312531;28;20442;-75
2021/06/16 09:00:24;;;;;;;8.55;2.08;;;;;;;-142.63;100.00;63929.00;6312450;28;20520;-76
2021/06/16 09:03:29;;;;;;;6.80;1.75;;;;;;;-142.63;100.00;63929.00;6312370;28;20467;-76
2021/06/16 09:06:33;;;;;;;1.73;1.52;;;;;;;-142.63;100.00;63929.00;6313467;28;20264;-76
2021/06/16 09:09:38;;;;;;;2.28;1.55;;;;;;;-142.63;100.00;63929.00;6312330;28;20205;-75
2021/06/16 09:12:46;;;;;;;6.43;1.55;;;;;;;-142.63;100.00;63929.00;6312105;28;20478;-76
2021/06/16 09:15:50;;;;;;;3.22;1.60;;;;;;;-142.63;100.00;63929.00;6312216;28;20450;-76
2021/06/16 09:18:55;;;;;;;6.82;1.88;;;;;;;-142.63;100.00;63929.00;6313106;28;20191;-75
2021/06/16 09:22:01;;;;;;;4.97;1.98;;;;;;;-142.63;100.00;63929.00;6313083;28;20184;-74
2021/06/16 09:25:07;;;;;;;3.60;1.83;;;;;;;-142.63;100.00;63929.00;6312997;28;20190;-75
2021/06/16 09:28:14;;;;;;;5.88;1.60;;;;;;;-142.63;100.00;63929.00;6311655;28;20538;-76
2021/06/16 09:31:20;;;;;;;3.88;1.60;;;;;;;-142.63;100.00;63929.00;6312380;28;20190;-75
2021/06/16 09:34:24;;;;;;;9.13;2.00;;;;;;;-142.63;100.00;63929.00;6311350;28;20188;-75
2021/06/16 09:37:41;;;;;;;6.47;1.58;;;;;;;-142.63;100.00;63929.00;6294927;28;20203;-75
2021/06/16 09:40:45;;;;;;;9.30;2.33;;;;;;;-142.63;100.00;63929.00;6312296;28;20188;-75
2021/06/16 09:43:54;;;;;;;6.43;1.90;;;;;;;-142.63;100.00;63929.00;6311525;28;20403;-76
2021/06/16 09:47:11;;;;;;;2.22;1.50;;;;;;;-142.63;100.00;63929.00;6308631;28;20200;-76
2021/06/16 09:50:15;;;;;;;4.82;1.50;;;;;;;-142.63;100.00;63929.00;6286063;28;20424;-75
2021/06/16 09:53:20;;;;;;;5.97;2.13;;;;;;;-142.63;100.00;63929.00;6287282;28;20185;-75
2021/06/16 09:56:25;;;;;;;5.50;1.92;;;;;;;-142.63;100.00;63929.00;6286310;28;20188;-76
2021/06/16 09:59:42;;;;;;;5.35;1.77;;;;;;;-142.63;100.00;63929.00;6287400;28;20188;-75
2021/06/16 10:02:46;;;;;;;5.32;1.70;;;;;;;-142.63;100.00;63929.00;6286566;28;20223;-76
2021/06/16 10:06:08;;;;;;;6.13;1.77;;;;;;;-142.63;100.00;63929.00;6287213;28;20251;-76
2021/06/16 10:09:12;;;;;;;7.50;2.30;;;;;;;-142.63;100.00;63929.00;6288096;28;20208;-76
2021/06/16 10:12:16;;;;;;;2.55;1.65;;;;;;;-142.63;100.00;63929.00;6287026;28;20065;-74
2021/06/16 10:15:22;;;;;;;;;;;;;;;-142.63;100.00;63929.00;6287723;28;20065;-75
2021/06/16 10:18:28;;;;;;;5.00;1.80;;;;;;;-142.63;100.00;63929.00;6287224;28;20218;-75
2021/06/16 10:21:31;;;;;;;;;;;;;;;-142.63;100.00;63929.00;6287139;28;20302;-75
2021/06/16 10:24:35;;;;;;;6.22;2.08;;;;;;;-142.63;100.00;63929.00;6285943;28;20072;-74
2021/06/16 10:27:41;;;;;;;;;;;;;;;-142.63;100.00;63929.00;6287229;28;20227;-75
2021/06/16 10:30:53;;;;;;;1.80;1.70;;;;;;;-142.63;100.00;63929.00;6285736;28;20061;-75
2021/06/16 10:33:58;;;;;;;8.15;2.17;;;;;;;-142.63;100.00;63929.00;6286766;28;20184;-75
2021/06/16 10:37:04;;;;;;;5.57;1.65;;;;;;;-142.63;100.00;63929.00;6285480;28;20438;-75
2021/06/16 10:40:29;;;;;;;2.47;1.70;;;;;;;-142.63;100.00;63929.00;6287184;28;20192;-75
2021/06/16 10:43:34;;;;;;;6.50;2.03;;;;;;;-142.63;100.00;63929.00;6310569;28;20412;-75
2021/06/16 10:46:51;;;;;;;6.63;2.00;;;;;;;-142.63;100.00;63929.00;6310648;28;20222;-75
2021/06/16 10:49:56;;;;;;;11.15;2.10;;;;;;;-142.63;100.00;63929.00;6311942;28;20289;-74
2021/06/16 10:53:04;;;;;;;5.13;1.80;;;;;;;-142.63;100.00;63929.00;6311329;28;20183;-75
2021/06/16 10:56:09;;;;;;;6.55;2.20;;;;;;;-142.63;100.00;63929.00;6310378;28;20522;-74
2021/06/16 10:59:13;;;;;;;3.53;1.80;;;;;;;-142.63;100.00;63929.00;6312521;28;20233;-74
2021/06/16 11:02:41;;;;;;;9.98;2.08;;;;;;;-142.63;100.00;63929.00;6315112;28;20183;-75
2021/06/16 11:05:46;;;;;;;8.48;2.00;;;;;;;-142.63;100.00;63929.00;6315455;28;20514;-75
2021/06/16 11:08:53;;;;;;;5.13;2.05;;;;;;;-142.63;100.00;63929.00;6297364;28;20295;-75
2021/06/16 11:12:09;;;;;;;7.25;1.95;;;;;;;-142.63;100.00;63929.00;6315048;28;20188;-75
2021/06/16 11:15:32;;;;;;;6.03;2.15;;;;;;;-142.63;100.00;63929.00;6315102;28;20357;-75
2021/06/16 11:18:38;;;;;;;12.55;2.40;;;;;;;-142.63;100.00;63929.00;6316359;28;20258;-75
2021/06/16 11:21:42;;;;;;;6.10;1.67;;;;;;;-142.63;100.00;63929.00;6316293;28;20188;-76
2021/06/16 11:25:06;;;;;;;4.13;1.83;;;;;;;-142.63;100.00;63929.00;6314289;28;20237;-75
2021/06/16 11:28:18;;;;;;;7.80;2.20;;;;;;;-142.63;100.00;63929.00;6315734;28;20211;-75
2021/06/16 11:31:22;;;;;;;9.68;2.95;;;;;;;-142.63;100.00;63929.00;6314965;28;20066;-75
2021/06/16 11:34:52;;;;;;;7.40;2.00;;;;;;;-142.63;100.00;63929.00;6314896;28;20199;-76
2021/06/16 11:37:59;;;;;;;;;;;;;;;-142.63;100.00;63929.00;6296988;28;20223;-75
2021/06/16 11:41:05;;;;;;;;;;;;;;;-142.63;100.00;63929.00;6315444;28;20103;-75
2021/06/16 11:44:10;;;;;;;;;;;;;;;-142.63;100.00;63929.00;6314697;28;20061;-75
2021/06/16 11:47:19;;;;;;;;;;;;;;;-142.63;100.00;63929.00;6309281;28;20291;-76
2021/06/16 11:50:28;;;;;;;;;;;;;;;-142.63;100.00;63929.00;6290289;28;20060;-75
2021/06/16 11:53:37;;;;;;;;;;;;;;;-142.63;100.00;63929.00;6290896;28;20061;-76
2021/06/16 11:56:41;;;;;;;;;;;;;;;-142.63;100.00;63929.00;6290819;28;20061;-75
2021/06/16 11:59:46;;;;;;;;;;;;;;;-142.63;100.00;63929.00;6291013;28;20288;-75
2021/06/16 12:02:50;;;;;;;;;;;;;;;-142.63;100.00;63929.00;6289452;28;19967;-75
2021/06/16 12:06:01;;;;;;;;;;;;;;;-142.63;100.00;63929.00;6289648;28;19925;-75
2021/06/16 12:09:05;;;;;;;;;;;;;;;-142.63;100.00;63929.00;6290205;28;19921;-75
2021/06/16 12:12:11;;;;;;;;;;;;;;;-142.63;100.00;63929.00;6289771;28;19962;-74
2021/06/16 12:15:16;;;;;;;;;;;;;;;-142.63;100.00;63929.00;6290269;28;19960;-75
2021/06/16 12:18:20;;;;;;;;;;;;;;;-142.63;100.00;63929.00;6290409;28;19920;-75
2021/06/16 12:21:25;;;;;;;;;;;;;;;-142.63;100.00;63929.00;6290085;28;19921;-75
2021/06/16 12:24:30;;;;;;;;;;;;;;;-142.63;100.00;63929.00;6290109;28;19983;-75
2021/06/16 12:27:34;;;;;;;;;;;;;;;-142.63;100.00;63929.00;6289830;28;20087;-75
2021/06/16 12:30:38;;;;;;;;;;;;;;;-142.63;100.00;63929.00;6290089;28;20061;-75
2021/06/16 12:33:48;;;;;;;16.48;1.45;;;;;;;-142.63;100.00;63929.00;6289660;28;20288;-75
2021/06/16 12:37:08;;;;;;;2.75;1.80;;;;;;;-142.63;100.00;63929.00;6290471;28;20272;-75
2021/06/16 12:40:13;;;;;;;7.07;1.48;;;;;;;-142.63;100.00;63929.00;6288811;28;20188;-75
2021/06/16 12:43:24;;;;;;;2.00;1.40;;;;;;;-142.63;100.00;63929.00;6288621;28;20390;-75
2021/06/16 12:46:28;;;;;;;7.93;2.30;;;;;;;-142.63;100.00;63929.00;6287991;28;20185;-75
2021/06/16 12:49:35;;;;;;;46.03;2.90;;;;;;;-142.63;100.00;63929.00;6288710;28;20228;-75
2021/06/16 12:52:40;;;;;;;4.22;1.75;;;;;;;-142.63;100.00;63929.00;6288848;28;20245;-74
2021/06/16 12:55:46;;;;;;;4.20;1.35;;;;;;;-142.63;100.00;63929.00;6289101;28;20184;-75
2021/06/16 12:58:50;;;;;;;7.35;1.42;;;;;;;-142.63;100.00;63929.00;6288921;28;20195;-74
2021/06/16 13:01:58;;;;;;;1.70;1.40;;;;;;;-142.63;100.00;63929.00;6288909;28;20195;-75
2021/06/16 13:05:05;;;;;;;4.70;1.60;;;;;;;-142.63;100.00;63929.00;6288460;28;20188;-74
2021/06/16 13:08:13;;;;;;;7.43;1.55;;;;;;;-142.63;100.00;63929.00;6287728;28;20184;-75
2021/06/16 13:11:23;;;;;;;4.32;1.50;;;;;;;-142.63;100.00;63929.00;6287544;28;20207;-75
2021/06/16 13:14:32;;;;;;;1.65;1.35;;;;;;;-142.63;100.00;63929.00;6287197;28;20441;-75
2021/06/16 13:17:47;;;;;;;3.38;1.38;;;;;;;-142.63;100.00;63929.00;6287410;28;20184;-74
2021/06/16 13:20:53;;;;;;;2.05;1.40;;;;;;;-142.63;100.00;63929.00;6287199;28;20199;-76
2021/06/16 13:23:58;;;;;;;3.45;1.40;;;;;;;-142.63;100.00;63929.00;6287070;28;20417;-76
2021/06/16 13:27:04;;;;;;;8.32;2.20;;;;;;;-142.63;100.00;63929.00;6286934;28;20185;-75
2021/06/16 13:30:11;;;;;;;3.08;1.40;;;;;;;-142.63;100.00;63929.00;6286704;28;20464;-75
2021/06/16 13:33:27;;;;;;;2.83;1.30;;;;;;;-142.63;100.00;63929.00;6287943;28;20191;-76
2021/06/16 13:36:31;;;;;;;1.15;1.15;;;;;;;-142.63;100.00;63929.00;6286197;28;20252;-76
2021/06/16 13:39:36;;;;;;;2.67;1.30;;;;;;;-142.63;100.00;63929.00;6287030;28;20234;-75
2021/06/16 13:42:49;;;;;;;4.63;1.80;;;;;;;-142.63;100.00;63929.00;6285669;28;20219;-75
2021/06/16 13:45:53;;;;;;;2.97;1.23;;;;;;;-142.63;100.00;63929.00;6286870;28;20188;-76
2021/06/16 13:48:58;;;;;;;7.15;1.60;;;;;;;-142.63;100.00;63929.00;6285677;28;20227;-75
2021/06/16 13:52:03;;;;;;;5.93;1.58;;;;;;;-142.63;100.00;63929.00;6285658;28;20239;-75
2021/06/16 13:55:12;;;;;;;5.38;1.30;;;;;;;-142.63;100.00;63929.00;6286492;28;20204;-75
2021/06/16 13:58:17;;;;;;;3.15;1.30;;;;;;;-142.63;100.00;63929.00;6285699;28;20184;-75
2021/06/16 14:01:22;;;;;;;3.22;1.73;;;;;;;-142.63;100.00;63929.00;6286141;28;20220;-76
2021/06/16 14:04:26;;;;;;;;;;;;;;;-142.63;100.00;63929.00;6287022;28;20212;-75
2021/06/16 14:07:29;;;;;;;;;;;;;;;-142.63;100.00;63929.00;6285587;28;19921;-76
2021/06/16 14:10:35;;;;;;;;;;;;;;;-142.63;100.00;63929.00;6286265;28;19921;-77
2021/06/16 14:13:40;;;;;;;;;;;;;;;-142.63;100.00;63929.00;6285460;28;20142;-75
2021/06/16 14:16:44;;;;;;;;;;;;;;;-142.63;100.00;63929.00;6287051;28;19921;-75
2021/06/16 14:19:48;;;;;;;10.55;1.70;;;;;;;-142.63;100.00;63929.00;6284779;28;20108;-76
2021/06/16 14:22:53;;;;;;;5.45;1.73;;;;;;;-142.63;100.00;63929.00;6284986;28;20190;-75
2021/06/16 14:25:59;;;;;;;4.32;1.48;;;;;;;-142.63;100.00;63929.00;6285380;28;20188;-76